createdAt,value
2023-02-25T00:01:14.433Z,2.70
2023-02-25T00:06:36.174Z,4.63
2023-02-25T00:11:57.929Z,2.90
2023-02-25T00:17:19.648Z,2.83
2023-02-25T00:22:42.178Z,2.45
2023-02-25T00:28:06.521Z,3.47
2023-02-25T00:33:28.372Z,3.03
2023-02-25T00:38:52.262Z,3.22
2023-02-25T00:44:14.068Z,3.15
2023-02-25T00:49:36.171Z,2.45
2023-02-25T00:54:57.895Z,2.80
2023-02-25T01:00:20.034Z,3.63
2023-02-25T01:05:42.149Z,1.00
2023-02-25T01:11:14.468Z,2.33
2023-02-25T01:16:36.515Z,2.13
2023-02-25T01:21:59.750Z,1.92
2023-02-25T01:27:21.527Z,2.60
2023-02-25T01:32:43.305Z,2.47
2023-02-25T01:38:05.116Z,2.95
2023-02-25T01:43:28.626Z,2.65
2023-02-25T01:48:50.343Z,1.25
2023-02-25T01:54:13.808Z,3.25
2023-02-25T01:59:36.267Z,1.70
2023-02-25T02:04:57.988Z,1.65
2023-02-25T02:10:19.884Z,3.75
2023-02-25T02:15:48.327Z,1.90
2023-02-25T02:21:18.159Z,0.82
2023-02-25T02:26:45.789Z,0.88
2023-02-25T02:32:31.708Z,1.52
2023-02-25T02:38:13.052Z,1.37
2023-02-25T02:43:58.197Z,2.30
2023-02-25T02:49:49.225Z,0.57
2023-02-25T02:55:22.641Z,2.35
2023-02-25T03:00:48.729Z,1.40
2023-02-25T03:06:23.943Z,0.90
2023-02-25T03:11:45.922Z,1.03
2023-02-25T03:17:15.646Z,2.60
2023-02-25T03:22:41.287Z,3.63
2023-02-25T03:33:32.377Z,1.92
2023-02-25T03:38:58.623Z,1.92
2023-02-25T03:44:26.834Z,1.75
2023-02-25T03:49:59.833Z,2.05
2023-02-25T03:55:21.774Z,0.90
2023-02-25T04:00:46.272Z,0.70
2023-02-25T04:06:08.021Z,1.33
2023-02-25T04:11:29.834Z,1.55
2023-02-25T04:16:51.695Z,0.60
2023-02-25T04:22:13.465Z,1.85
2023-02-25T04:27:35.240Z,2.63
2023-02-25T04:32:57.125Z,2.47
2023-02-25T04:38:18.922Z,2.25
2023-02-25T04:43:40.745Z,1.40
2023-02-25T04:49:03.765Z,1.88
2023-02-25T04:54:25.477Z,1.80
2023-02-25T04:59:47.465Z,1.75
2023-02-25T05:05:10.424Z,3.22
2023-02-25T05:10:32.287Z,2.95
2023-02-25T05:16:04.215Z,2.80
2023-02-25T05:21:26.879Z,3.25
2023-02-25T05:26:48.594Z,1.73
2023-02-25T05:32:10.394Z,2.35
2023-02-25T05:37:32.694Z,2.58
2023-02-25T05:42:54.445Z,2.30
2023-02-25T05:48:16.197Z,2.42
2023-02-25T05:53:38.094Z,3.65
2023-02-25T05:58:59.878Z,2.72
2023-02-25T06:04:22.322Z,1.85
2023-02-25T06:09:44.122Z,3.45
2023-02-25T06:15:06.269Z,2.50
2023-02-25T06:20:28.580Z,2.03
2023-02-25T06:25:50.312Z,3.85
2023-02-25T06:31:15.515Z,2.28
2023-02-25T06:36:37.396Z,3.83
2023-02-25T06:41:59.531Z,2.72
2023-02-25T06:47:22.746Z,8.80
2023-02-25T06:52:44.557Z,15.65
2023-02-25T06:58:06.734Z,15.48
2023-02-25T07:03:28.532Z,11.07
2023-02-25T07:08:50.847Z,6.93
2023-02-25T07:14:16.486Z,7.15
2023-02-25T07:19:38.221Z,10.98
2023-02-25T07:25:00.169Z,11.52
2023-02-25T07:30:22.349Z,7.75
2023-02-25T07:35:44.083Z,7.32
2023-02-25T07:41:11.449Z,5.82
2023-02-25T07:46:33.979Z,6.35
2023-02-25T07:51:55.809Z,6.35
2023-02-25T07:57:17.518Z,3.22
2023-02-25T08:02:39.913Z,8.75
2023-02-25T08:08:01.728Z,5.70
2023-02-25T08:13:23.441Z,5.53
2023-02-25T08:18:45.289Z,6.45
2023-02-25T08:24:08.294Z,12.15
2023-02-25T08:29:30.200Z,6.57
2023-02-25T08:34:52.824Z,8.30
2023-02-25T08:40:15.253Z,4.30
2023-02-25T08:45:38.231Z,6.75
2023-02-25T08:51:05.522Z,6.35
2023-02-25T08:56:27.703Z,7.95
2023-02-25T09:01:50.540Z,12.95
2023-02-25T09:07:16.675Z,8.30
2023-02-25T09:12:38.894Z,8.05
2023-02-25T09:18:00.607Z,6.90
2023-02-25T09:23:22.317Z,6.53
2023-02-25T09:28:44.230Z,6.88
2023-02-25T09:34:08.979Z,10.55
2023-02-25T09:39:31.054Z,5.73
2023-02-25T09:44:59.874Z,20.95
2023-02-25T09:50:27.064Z,14.90
2023-02-25T09:55:52.884Z,20.73
2023-02-25T10:01:27.106Z,16.90
2023-02-25T10:06:51.248Z,17.85
2023-02-25T10:12:41.172Z,14.98
2023-02-25T10:18:33.107Z,14.73
2023-02-25T10:23:55.019Z,11.23
2023-02-25T10:29:36.873Z,11.93
2023-02-25T10:35:01.686Z,16.77
2023-02-25T10:40:26.826Z,14.57
2023-02-25T10:45:55.453Z,14.48
2023-02-25T10:51:17.257Z,14.35
2023-02-25T10:56:45.378Z,9.75
2023-02-25T11:02:30.441Z,9.57
2023-02-25T11:07:52.593Z,8.20
2023-02-25T11:13:29.017Z,10.30
2023-02-25T11:18:57.792Z,7.70
2023-02-25T11:24:31.513Z,8.15
2023-02-25T11:29:53.784Z,9.98
2023-02-25T11:35:20.372Z,8.20
2023-02-25T11:40:44.601Z,8.27
2023-02-25T11:46:12.173Z,12.73
2023-02-25T11:51:52.478Z,12.68
2023-02-25T11:57:27.951Z,8.00
2023-02-25T12:03:07.900Z,5.43
2023-02-25T12:08:37.712Z,11.23
2023-02-25T12:14:16.713Z,6.57
2023-02-25T12:19:57.365Z,7.32
2023-02-25T12:25:27.845Z,7.53
2023-02-25T12:31:40.632Z,6.30
2023-02-25T12:37:33.959Z,7.65
2023-02-25T12:43:02.956Z,6.10
2023-02-25T12:48:35.551Z,7.35
2023-02-25T12:54:22.067Z,5.60
2023-02-25T13:00:02.444Z,6.00
2023-02-25T13:05:58.869Z,5.47
2023-02-25T13:11:31.270Z,7.93
2023-02-25T13:17:16.651Z,6.68
2023-02-25T13:22:59.085Z,4.95
2023-02-25T13:28:38.215Z,3.88
2023-02-25T13:34:39.356Z,9.80
2023-02-25T13:40:36.602Z,5.60
2023-02-25T13:52:21.584Z,8.80
2023-02-25T13:58:20.723Z,6.65
2023-02-25T14:04:09.173Z,2.20
2023-02-25T14:09:35.809Z,5.07
2023-02-25T14:15:12.782Z,3.78
2023-02-25T14:20:59.406Z,5.07
2023-02-25T14:31:59.345Z,5.32
2023-02-25T14:37:50.096Z,6.88
2023-02-25T14:43:33.338Z,3.70
2023-02-25T14:49:21.481Z,3.95
2023-02-25T14:55:14.230Z,11.75
2023-02-25T15:00:55.765Z,6.40
2023-02-25T15:06:26.882Z,8.68
2023-02-25T15:12:26.629Z,5.32
2023-02-25T15:18:07.073Z,8.20
2023-02-25T15:23:51.569Z,4.57
2023-02-25T15:29:29.400Z,5.45
2023-02-25T15:34:53.770Z,9.10
2023-02-25T15:40:15.477Z,10.07
2023-02-25T15:45:38.860Z,8.45
2023-02-25T15:51:01.990Z,10.10
2023-02-25T15:56:28.387Z,6.65
2023-02-25T16:01:50.277Z,9.27
2023-02-25T16:07:15.891Z,5.50
2023-02-25T16:18:16.109Z,6.43
2023-02-25T16:23:41.246Z,4.63
2023-02-25T16:29:15.296Z,7.82
2023-02-25T16:34:42.068Z,5.80
2023-02-25T16:40:05.233Z,3.58
2023-02-25T16:45:31.204Z,11.90
2023-02-25T16:50:54.555Z,4.18
2023-02-25T16:56:23.361Z,4.43
2023-02-25T17:02:00.278Z,4.32
2023-02-25T17:07:28.030Z,7.30
2023-02-25T17:12:49.868Z,6.05
2023-02-25T17:18:46.099Z,6.63
2023-02-25T17:24:17.351Z,6.87
2023-02-25T17:29:40.240Z,5.82
2023-02-25T17:35:03.696Z,6.90
2023-02-25T17:40:27.643Z,8.27
2023-02-25T17:45:58.441Z,4.95
2023-02-25T17:51:30.317Z,5.55
2023-02-25T17:57:02.077Z,6.15
2023-02-25T18:02:34.381Z,8.18
2023-02-25T18:08:24.857Z,8.35
2023-02-25T18:13:46.578Z,5.60
2023-02-25T18:19:12.220Z,6.85
2023-02-25T18:24:36.712Z,4.32
2023-02-25T18:30:21.663Z,4.47
2023-02-25T18:35:46.234Z,5.10
2023-02-25T18:41:08.157Z,11.93
2023-02-25T18:46:29.937Z,4.22
2023-02-25T18:51:52.327Z,8.15
2023-02-25T18:57:22.601Z,3.63
2023-02-25T19:02:53.251Z,6.22
2023-02-25T19:08:16.993Z,4.95
2023-02-25T19:13:42.128Z,3.42
2023-02-25T19:19:04.276Z,7.60
2023-02-25T19:24:25.980Z,2.72
2023-02-25T19:29:54.550Z,2.88
2023-02-25T19:35:16.883Z,2.28
2023-02-25T19:40:38.643Z,6.05
2023-02-25T19:46:00.961Z,38.63
2023-02-25T19:51:23.201Z,47.90
2023-02-25T19:56:45.299Z,25.42
2023-02-25T20:02:07.139Z,26.15
2023-02-25T20:07:28.979Z,25.02
2023-02-25T20:12:50.767Z,13.70
2023-02-25T20:18:12.521Z,12.93
2023-02-25T20:23:34.744Z,12.43
2023-02-25T20:28:57.606Z,13.93
2023-02-25T20:34:22.012Z,15.75
2023-02-25T20:39:48.081Z,10.10
2023-02-25T20:45:15.149Z,12.35
2023-02-25T20:50:38.442Z,10.60
2023-02-25T20:56:00.451Z,10.68
2023-02-25T21:01:22.571Z,5.80
2023-02-25T21:06:44.460Z,15.77
2023-02-25T21:12:07.105Z,6.75
2023-02-25T21:17:28.904Z,5.88
2023-02-25T21:22:50.655Z,9.65
2023-02-25T21:28:15.364Z,4.07
2023-02-25T21:33:39.693Z,4.63
2023-02-25T21:39:01.534Z,7.55
2023-02-25T21:44:23.568Z,7.90
2023-02-25T21:49:45.602Z,11.65
2023-02-25T21:55:08.404Z,13.00
2023-02-25T22:00:30.126Z,14.63
2023-02-25T22:05:51.908Z,9.55
2023-02-25T22:11:16.080Z,4.85
2023-02-25T22:16:39.110Z,4.00
2023-02-25T22:22:00.805Z,5.20
2023-02-25T22:27:23.126Z,6.53
2023-02-25T22:32:44.831Z,5.63
2023-02-25T22:38:06.760Z,4.15
2023-02-25T22:43:29.920Z,7.05
2023-02-25T22:48:52.416Z,3.58
2023-02-25T22:54:16.527Z,2.42
2023-02-25T22:59:38.364Z,5.20
2023-02-25T23:05:00.774Z,3.17
2023-02-25T23:10:24.413Z,4.22
2023-02-25T23:15:47.982Z,4.72
2023-02-25T23:21:15.869Z,3.17
2023-02-25T23:26:40.407Z,3.53
2023-02-25T23:32:03.186Z,5.88
2023-02-25T23:37:25.029Z,3.33
2023-02-25T23:42:46.809Z,5.75
2023-02-25T23:48:08.881Z,3.28
2023-02-25T23:53:30.814Z,3.65
2023-02-25T23:58:56.969Z,3.25
